createdAt,value
2018-03-22T00:00:04.218Z,21.7
2018-03-22T00:00:54.558Z,21.7
2018-03-22T00:01:44.032Z,21.7
2018-03-22T00:02:35.271Z,21.7
2018-03-22T00:03:24.934Z,21.7
2018-03-22T00:04:13.447Z,21.7
2018-03-22T00:05:04.582Z,21.7
2018-03-22T00:05:54.237Z,21.7
2018-03-22T00:06:45.176Z,21.8
2018-03-22T00:07:34.235Z,21.8
2018-03-22T00:08:24.792Z,21.8
2018-03-22T00:09:15.465Z,21.8
2018-03-22T00:10:03.919Z,21.7
2018-03-22T00:10:54.834Z,21.8
2018-03-22T00:11:45.512Z,21.8
2018-03-22T00:12:34.306Z,21.8
2018-03-22T00:13:24.895Z,21.8
2018-03-22T00:14:14.488Z,21.8
2018-03-22T00:15:04.270Z,21.8
2018-03-22T00:15:54.598Z,21.8
2018-03-22T00:16:45.551Z,21.8
2018-03-22T00:17:35.032Z,21.8
2018-03-22T00:18:25.886Z,21.7
2018-03-22T00:19:15.608Z,21.7
2018-03-22T00:20:05.678Z,21.7
2018-03-22T00:20:55.981Z,21.7
2018-03-22T00:21:46.005Z,21.7
2018-03-22T00:22:35.574Z,21.7
2018-03-22T00:23:26.510Z,21.7
2018-03-22T00:24:15.618Z,21.7
2018-03-22T00:25:06.248Z,21.7
2018-03-22T00:25:55.785Z,21.6
2018-03-22T00:26:46.276Z,21.7
2018-03-22T00:27:36.498Z,21.6
2018-03-22T00:28:27.039Z,21.7
2018-03-22T00:29:16.563Z,21.6
2018-03-22T00:30:05.814Z,21.7
2018-03-22T00:30:55.165Z,21.6
2018-03-22T00:31:46.812Z,21.7
2018-03-22T00:32:36.434Z,21.7
2018-03-22T00:33:26.829Z,21.6
2018-03-22T00:34:16.760Z,21.7
2018-03-22T00:35:06.174Z,21.6
2018-03-22T00:35:56.227Z,21.7
2018-03-22T00:36:46.949Z,21.6
2018-03-22T00:37:36.423Z,21.6
2018-03-22T00:38:27.206Z,21.6
2018-03-22T00:39:17.257Z,21.6
2018-03-22T00:40:07.339Z,21.6
2018-03-22T00:40:57.374Z,21.6
2018-03-22T00:41:47.309Z,21.6
2018-03-22T00:42:37.617Z,21.6
2018-03-22T00:43:27.527Z,21.6
2018-03-22T00:44:16.949Z,21.6
2018-03-22T00:45:07.853Z,21.6
2018-03-22T00:45:56.819Z,21.6
2018-03-22T00:46:47.644Z,21.6
2018-03-22T00:47:37.131Z,21.6
2018-03-22T00:48:26.911Z,21.6
2018-03-22T00:49:18.026Z,21.6
2018-03-22T00:50:07.366Z,21.6
2018-03-22T00:50:57.551Z,21.6
2018-03-22T00:51:47.379Z,21.6
2018-03-22T00:52:37.700Z,21.6
2018-03-22T00:53:27.941Z,21.6
2018-03-22T00:54:17.869Z,21.6
2018-03-22T00:55:07.206Z,21.6
2018-03-22T00:55:58.051Z,21.6
2018-03-22T00:56:48.551Z,21.6
2018-03-22T00:57:38.990Z,21.6
2018-03-22T00:58:27.686Z,21.6
2018-03-22T00:59:17.740Z,21.6
2018-03-22T01:00:08.921Z,21.6
2018-03-22T01:00:59.352Z,21.6
2018-03-22T01:01:48.861Z,21.6
2018-03-22T01:02:38.674Z,21.6
2018-03-22T01:03:28.222Z,21.6
2018-03-22T01:04:18.987Z,21.6
2018-03-22T01:05:08.568Z,21.6
2018-03-22T01:05:58.598Z,21.6
2018-03-22T01:06:49.135Z,21.6
2018-03-22T01:07:38.788Z,21.6
2018-03-22T01:08:28.471Z,21.6
2018-03-22T01:09:19.425Z,21.6
2018-03-22T01:10:08.948Z,21.6
2018-03-22T01:10:59.530Z,21.6
2018-03-22T01:11:49.891Z,21.6
2018-03-22T01:12:39.661Z,21.6
2018-03-22T01:13:29.608Z,21.6
2018-03-22T01:14:19.382Z,21.6
2018-03-22T01:15:10.008Z,21.6
2018-03-22T01:16:00.163Z,21.6
2018-03-22T01:16:49.637Z,21.6
2018-03-22T01:17:40.255Z,21.6
2018-03-22T01:18:28.995Z,21.6
2018-03-22T01:19:20.452Z,21.6
2018-03-22T01:20:09.576Z,21.6
2018-03-22T01:20:59.342Z,21.6
2018-03-22T01:21:49.973Z,21.6
2018-03-22T01:22:40.107Z,21.6
2018-03-22T01:23:29.051Z,21.6
2018-03-22T01:24:19.898Z,21.6
2018-03-22T01:25:09.821Z,21.6
2018-03-22T01:26:00.292Z,21.6
2018-03-22T01:26:50.829Z,21.6
2018-03-22T01:27:40.414Z,21.6
2018-03-22T01:28:30.240Z,21.6
2018-03-22T01:29:19.242Z,21.6
2018-03-22T01:30:09.794Z,21.6
2018-03-22T01:31:00.347Z,21.6
2018-03-22T01:31:50.639Z,21.6
2018-03-22T01:32:40.786Z,21.6
2018-03-22T01:33:30.766Z,21.6
2018-03-22T01:34:20.986Z,21.6
2018-03-22T01:35:11.236Z,21.6
2018-03-22T01:36:00.977Z,21.6
2018-03-22T01:36:51.849Z,21.6
2018-03-22T01:37:41.619Z,21.6
2018-03-22T01:38:30.278Z,21.6
2018-03-22T01:39:21.211Z,21.6
2018-03-22T01:40:11.207Z,21.6
2018-03-22T01:41:01.226Z,21.6
2018-03-22T01:41:51.023Z,21.6
2018-03-22T01:42:41.301Z,21.6
2018-03-22T01:43:31.616Z,21.6
2018-03-22T01:44:21.194Z,21.6
2018-03-22T01:45:10.907Z,21.5
2018-03-22T01:46:01.998Z,21.5
2018-03-22T01:46:51.640Z,21.5
2018-03-22T01:47:42.016Z,21.5
2018-03-22T01:48:31.868Z,21.5
2018-03-22T01:49:21.983Z,21.5
2018-03-22T01:50:12.745Z,21.5
2018-03-22T01:51:01.550Z,21.5
2018-03-22T01:51:52.084Z,21.5
2018-03-22T01:52:41.937Z,21.5
2018-03-22T01:53:31.929Z,21.4
2018-03-22T01:54:21.981Z,21.4
2018-03-22T01:55:11.847Z,21.5
2018-03-22T01:56:01.823Z,21.4
2018-03-22T01:56:52.341Z,21.5
2018-03-22T01:57:42.702Z,21.5
2018-03-22T01:58:33.634Z,21.5
2018-03-22T01:59:21.955Z,21.5
2018-03-22T02:00:12.425Z,21.5
2018-03-22T02:01:02.725Z,21.5
2018-03-22T02:01:53.031Z,21.5
2018-03-22T02:02:43.627Z,21.5
2018-03-22T02:03:33.089Z,21.5
2018-03-22T02:04:22.263Z,21.5
2018-03-22T02:05:13.024Z,21.5
2018-03-22T02:06:02.209Z,21.5
2018-03-22T02:06:53.897Z,21.5
2018-03-22T02:07:42.835Z,21.5
2018-03-22T02:08:32.364Z,21.5
2018-03-22T02:09:23.517Z,21.5
2018-03-22T02:10:13.121Z,21.5
2018-03-22T02:11:03.537Z,21.5
2018-03-22T02:11:54.254Z,21.5
2018-03-22T02:12:43.226Z,21.5
2018-03-22T02:13:32.842Z,21.5
2018-03-22T02:14:23.579Z,21.5
2018-03-22T02:15:13.615Z,21.5
2018-03-22T02:16:03.499Z,21.5
2018-03-22T02:16:53.467Z,21.5
2018-03-22T02:17:43.917Z,21.5
2018-03-22T02:18:33.959Z,21.4
2018-03-22T02:19:24.236Z,21.4
2018-03-22T02:20:14.377Z,21.4
2018-03-22T02:21:03.332Z,21.4
2018-03-22T02:21:53.974Z,21.4
2018-03-22T02:22:44.518Z,21.4
2018-03-22T02:23:34.284Z,21.4
2018-03-22T02:24:24.856Z,21.4
2018-03-22T02:25:13.446Z,21.4
2018-03-22T02:26:04.415Z,21.4
2018-03-22T02:26:54.853Z,21.4
2018-03-22T02:27:45.093Z,21.4
2018-03-22T02:28:35.182Z,21.4
2018-03-22T02:29:24.565Z,21.4
2018-03-22T02:30:15.584Z,21.4
2018-03-22T02:31:04.840Z,21.4
2018-03-22T02:31:54.619Z,21.4
2018-03-22T02:32:44.693Z,21.4
2018-03-22T02:33:35.539Z,21.4
2018-03-22T02:34:24.995Z,21.4
2018-03-22T02:35:14.758Z,21.4
2018-03-22T02:36:04.318Z,21.4
2018-03-22T02:36:54.867Z,21.4
2018-03-22T02:37:45.692Z,21.4
2018-03-22T02:38:35.153Z,21.4
2018-03-22T02:39:25.138Z,21.4
2018-03-22T02:40:15.900Z,21.4
2018-03-22T02:41:05.302Z,21.4
2018-03-22T02:41:55.704Z,21.4
2018-03-22T02:42:44.847Z,21.4
2018-03-22T02:43:34.865Z,21.4
2018-03-22T02:44:26.358Z,21.4
2018-03-22T02:45:15.374Z,21.4
2018-03-22T02:46:06.060Z,21.4
2018-03-22T02:46:55.755Z,21.4
2018-03-22T02:47:45.758Z,21.4
2018-03-22T02:48:36.269Z,21.4
2018-03-22T02:49:26.042Z,21.4
2018-03-22T02:50:16.669Z,21.4
2018-03-22T02:51:06.189Z,21.4
2018-03-22T02:51:55.979Z,21.4
2018-03-22T02:52:46.654Z,21.4
2018-03-22T02:53:36.113Z,21.4
2018-03-22T02:54:26.077Z,21.4
2018-03-22T02:55:16.749Z,21.4
2018-03-22T02:56:06.225Z,21.4
2018-03-22T02:56:56.682Z,21.4
2018-03-22T02:57:46.024Z,21.4
2018-03-22T02:58:36.687Z,21.4
2018-03-22T02:59:26.475Z,21.4
2018-03-22T03:00:17.310Z,21.4
2018-03-22T03:01:06.659Z,21.4
2018-03-22T03:01:57.582Z,21.4
2018-03-22T03:02:47.283Z,21.3
2018-03-22T03:03:36.446Z,21.3
2018-03-22T03:04:26.884Z,21.3
2018-03-22T03:05:16.434Z,21.4
2018-03-22T03:06:07.187Z,21.3
2018-03-22T03:06:57.267Z,21.3
2018-03-22T03:07:47.598Z,21.3
2018-03-22T03:08:38.046Z,21.3
2018-03-22T03:09:26.629Z,21.3
2018-03-22T03:10:16.478Z,21.3
2018-03-22T03:11:07.448Z,21.3
2018-03-22T03:11:57.081Z,21.3
2018-03-22T03:12:47.526Z,21.3
2018-03-22T03:13:37.388Z,21.3
2018-03-22T03:14:28.129Z,21.3
2018-03-22T03:15:17.448Z,21.4
2018-03-22T03:16:08.271Z,21.3
2018-03-22T03:16:57.461Z,21.4
2018-03-22T03:17:47.741Z,21.3
2018-03-22T03:18:38.128Z,21.4
2018-03-22T03:19:28.742Z,21.4
2018-03-22T03:20:17.566Z,21.4
2018-03-22T03:21:08.023Z,21.4
2018-03-22T03:21:59.134Z,21.4
2018-03-22T03:22:48.447Z,21.4
2018-03-22T03:23:38.999Z,21.4
2018-03-22T03:24:27.770Z,21.4
2018-03-22T03:25:17.805Z,21.4
2018-03-22T03:26:08.670Z,21.4
2018-03-22T03:26:57.839Z,21.4
2018-03-22T03:27:48.284Z,21.4
2018-03-22T03:28:38.757Z,21.4
2018-03-22T03:29:29.409Z,21.4
2018-03-22T03:30:18.876Z,21.4
2018-03-22T03:31:09.148Z,21.3
2018-03-22T03:31:59.049Z,21.3
2018-03-22T03:32:48.864Z,21.4
2018-03-22T03:33:38.619Z,21.3
2018-03-22T03:34:29.998Z,21.3
2018-03-22T03:35:19.046Z,21.3
2018-03-22T03:36:09.689Z,21.3
2018-03-22T03:36:59.454Z,21.3
2018-03-22T03:37:48.512Z,21.3
2018-03-22T03:38:38.674Z,21.3
2018-03-22T03:39:28.977Z,21.3
2018-03-22T03:40:18.990Z,21.3
2018-03-22T03:41:09.235Z,21.3
2018-03-22T03:41:59.312Z,21.3
2018-03-22T03:42:49.252Z,21.3
2018-03-22T03:43:40.514Z,21.4
2018-03-22T03:44:29.671Z,21.4
2018-03-22T03:45:20.231Z,21.4
2018-03-22T03:46:09.466Z,21.4
2018-03-22T03:47:00.925Z,21.4
2018-03-22T03:47:49.524Z,21.4
2018-03-22T03:48:40.984Z,21.4
2018-03-22T03:49:29.824Z,21.4
2018-03-22T03:50:20.042Z,21.4
2018-03-22T03:51:10.341Z,21.4
2018-03-22T03:51:59.604Z,21.3
2018-03-22T03:52:51.169Z,21.4
2018-03-22T03:53:40.394Z,21.4
2018-03-22T03:54:30.567Z,21.4
2018-03-22T03:55:20.116Z,21.4
2018-03-22T03:56:10.506Z,21.3
2018-03-22T03:57:00.817Z,21.3
2018-03-22T03:57:50.694Z,21.4
2018-03-22T03:58:40.706Z,21.3
2018-03-22T03:59:31.338Z,21.3
2018-03-22T04:00:20.642Z,21.3
2018-03-22T04:01:11.633Z,21.3
2018-03-22T04:02:00.598Z,21.3
2018-03-22T04:02:51.021Z,21.3
2018-03-22T04:03:41.366Z,21.3
2018-03-22T04:04:31.276Z,21.3
2018-03-22T04:05:21.892Z,21.3
2018-03-22T04:06:11.451Z,21.3
2018-03-22T04:07:00.560Z,21.3
2018-03-22T04:07:51.291Z,21.3
2018-03-22T04:08:41.337Z,21.3
2018-03-22T04:09:31.404Z,21.3
2018-03-22T04:10:21.757Z,21.3
2018-03-22T04:11:12.166Z,21.3
2018-03-22T04:12:02.963Z,21.3
2018-03-22T04:12:52.692Z,21.3
2018-03-22T04:13:42.172Z,21.3
2018-03-22T04:14:31.964Z,21.3
2018-03-22T04:15:21.715Z,21.4
2018-03-22T04:16:12.072Z,21.4
2018-03-22T04:17:02.582Z,21.4
2018-03-22T04:17:52.269Z,21.4
2018-03-22T04:18:41.643Z,21.4
2018-03-22T04:19:32.484Z,21.4
2018-03-22T04:20:22.829Z,21.4
2018-03-22T04:21:12.340Z,21.4
2018-03-22T04:22:02.255Z,21.4
2018-03-22T04:22:52.919Z,21.4
2018-03-22T04:23:42.459Z,21.4
2018-03-22T04:24:32.943Z,21.4
2018-03-22T04:25:22.241Z,21.4
2018-03-22T04:26:11.564Z,21.4
2018-03-22T04:27:03.106Z,21.4
2018-03-22T04:27:54.085Z,21.4
2018-03-22T04:28:43.345Z,21.4
2018-03-22T04:29:33.623Z,21.4
2018-03-22T04:30:23.630Z,21.4
2018-03-22T04:31:14.094Z,21.4
2018-03-22T04:32:03.476Z,21.4
2018-03-22T04:32:53.413Z,21.4
2018-03-22T04:33:43.282Z,21.4
2018-03-22T04:34:33.683Z,21.3
2018-03-22T04:35:23.413Z,21.3
2018-03-22T04:36:13.568Z,21.3
2018-03-22T04:37:03.130Z,21.3
2018-03-22T04:37:53.662Z,21.3
2018-03-22T04:38:43.798Z,21.3
2018-03-22T04:39:34.091Z,21.3
2018-03-22T04:40:23.529Z,21.3
2018-03-22T04:41:13.603Z,21.3
2018-03-22T04:42:03.657Z,21.3
2018-03-22T04:42:54.513Z,21.3
2018-03-22T04:43:43.888Z,21.3
2018-03-22T04:44:33.968Z,21.3
2018-03-22T04:45:24.403Z,21.3
2018-03-22T04:46:13.651Z,21.3
2018-03-22T04:47:03.262Z,21.3
2018-03-22T04:47:54.595Z,21.3
2018-03-22T04:48:45.088Z,21.3
2018-03-22T04:49:34.195Z,21.3
2018-03-22T04:50:24.268Z,21.3
2018-03-22T04:51:13.945Z,21.4
2018-03-22T04:52:04.448Z,21.4
2018-03-22T04:52:54.455Z,21.3
2018-03-22T04:53:45.795Z,21.4
2018-03-22T04:54:35.889Z,21.3
2018-03-22T04:55:25.894Z,21.4
2018-03-22T04:56:15.697Z,21.3
2018-03-22T04:57:05.702Z,21.3
2018-03-22T04:57:55.820Z,21.4
2018-03-22T04:58:45.855Z,21.4
2018-03-22T04:59:36.234Z,21.3
2018-03-22T05:00:25.994Z,21.4
2018-03-22T05:01:16.072Z,21.4
2018-03-22T05:02:04.682Z,21.3
2018-03-22T05:02:56.435Z,21.3
2018-03-22T05:03:46.235Z,21.3
2018-03-22T05:04:36.002Z,21.3
2018-03-22T05:05:26.336Z,21.3
2018-03-22T05:06:16.711Z,21.3
2018-03-22T05:07:06.552Z,21.3
2018-03-22T05:07:57.100Z,21.3
2018-03-22T05:08:45.994Z,21.3
2018-03-22T05:09:36.882Z,21.3
2018-03-22T05:10:27.264Z,21.3
2018-03-22T05:11:17.044Z,21.3
2018-03-22T05:12:06.546Z,21.3
2018-03-22T05:12:56.558Z,21.3
2018-03-22T05:13:46.979Z,21.3
2018-03-22T05:14:37.315Z,21.3
2018-03-22T05:15:26.829Z,21.3
2018-03-22T05:16:17.083Z,21.3
2018-03-22T05:17:07.487Z,21.3
2018-03-22T05:17:57.475Z,21.3
2018-03-22T05:18:48.053Z,21.3
2018-03-22T05:19:37.321Z,21.3
2018-03-22T05:20:27.116Z,21.3
2018-03-22T05:21:17.703Z,21.3
2018-03-22T05:22:07.778Z,21.3
2018-03-22T05:22:57.259Z,21.3
2018-03-22T05:23:48.200Z,21.3
2018-03-22T05:24:38.274Z,21.3
2018-03-22T05:25:27.779Z,21.3
2018-03-22T05:26:18.032Z,21.3
2018-03-22T05:27:08.132Z,21.3
2018-03-22T05:27:58.174Z,21.3
2018-03-22T05:28:48.517Z,21.3
2018-03-22T05:29:38.270Z,21.3
2018-03-22T05:30:28.065Z,21.3
2018-03-22T05:31:18.744Z,21.3
2018-03-22T05:32:08.190Z,21.3
2018-03-22T05:32:58.211Z,21.3
2018-03-22T05:33:48.627Z,21.3
2018-03-22T05:34:38.683Z,21.3
2018-03-22T05:35:28.983Z,21.3
2018-03-22T05:36:19.002Z,21.3
2018-03-22T05:37:08.838Z,21.3
2018-03-22T05:37:58.861Z,21.3
2018-03-22T05:38:48.903Z,21.3
2018-03-22T05:39:39.228Z,21.3
2018-03-22T05:40:29.048Z,21.3
2018-03-22T05:41:19.060Z,21.3
2018-03-22T05:42:08.650Z,21.3
2018-03-22T05:42:58.238Z,21.3
2018-03-22T05:43:48.637Z,21.3
2018-03-22T05:44:38.538Z,21.3
2018-03-22T05:45:27.043Z,21.3
2018-03-22T05:46:18.975Z,21.3
2018-03-22T05:47:08.365Z,21.3
2018-03-22T05:47:58.935Z,21.3
2018-03-22T05:48:49.061Z,21.3
2018-03-22T05:49:39.146Z,21.3
2018-03-22T05:50:29.362Z,21.3
2018-03-22T05:51:18.757Z,21.3
2018-03-22T05:52:09.171Z,21.3
2018-03-22T05:52:58.682Z,21.3
2018-03-22T05:53:48.924Z,21.3
2018-03-22T05:54:38.692Z,21.3
2018-03-22T05:55:28.952Z,21.3
2018-03-22T05:56:18.915Z,21.3
2018-03-22T05:57:09.252Z,21.3
2018-03-22T05:57:59.440Z,21.3
2018-03-22T05:58:49.570Z,21.3
2018-03-22T05:59:39.655Z,21.3
2018-03-22T06:00:30.077Z,21.3
2018-03-22T06:01:20.258Z,21.3
2018-03-22T06:02:09.626Z,21.3
2018-03-22T06:02:59.610Z,21.3
2018-03-22T06:03:49.941Z,21.3
2018-03-22T06:04:39.570Z,21.3
2018-03-22T06:05:29.177Z,21.3
2018-03-22T06:06:19.715Z,21.3
2018-03-22T06:07:09.275Z,21.3
2018-03-22T06:07:59.962Z,21.3
2018-03-22T06:08:50.862Z,21.3
2018-03-22T06:09:39.950Z,21.3
2018-03-22T06:10:30.293Z,21.3
2018-03-22T06:11:20.812Z,21.3
2018-03-22T06:12:09.633Z,21.3
2018-03-22T06:13:00.632Z,21.3
2018-03-22T06:13:49.770Z,21.3
2018-03-22T06:14:40.795Z,21.3
2018-03-22T06:15:29.669Z,21.3
2018-03-22T06:16:20.999Z,21.3
2018-03-22T06:17:10.192Z,21.3
2018-03-22T06:18:01.199Z,21.3
2018-03-22T06:18:50.413Z,21.3
2018-03-22T06:19:40.135Z,21.3
2018-03-22T06:20:30.509Z,21.3
2018-03-22T06:21:20.974Z,21.3
2018-03-22T06:22:10.789Z,21.3
2018-03-22T06:23:00.643Z,21.3
2018-03-22T06:23:51.401Z,21.3
2018-03-22T06:24:40.884Z,21.3
2018-03-22T06:25:30.563Z,21.3
2018-03-22T06:26:21.225Z,21.3
2018-03-22T06:27:10.161Z,21.3
2018-03-22T06:28:01.804Z,21.3
2018-03-22T06:28:51.803Z,21.3
2018-03-22T06:29:41.263Z,21.3
2018-03-22T06:30:30.111Z,21.3
2018-03-22T06:31:21.141Z,21.3
2018-03-22T06:32:11.888Z,21.3
2018-03-22T06:33:01.558Z,21.3
2018-03-22T06:33:50.545Z,21.3
2018-03-22T06:34:42.162Z,21.3
2018-03-22T06:35:31.763Z,21.3
2018-03-22T06:36:21.903Z,21.3
2018-03-22T06:37:12.860Z,21.3
2018-03-22T06:38:01.161Z,21.3
2018-03-22T06:38:52.158Z,21.3
2018-03-22T06:39:41.840Z,21.3
2018-03-22T06:40:30.932Z,21.3
2018-03-22T06:41:21.893Z,21.3
2018-03-22T06:42:11.902Z,21.3
2018-03-22T06:43:02.721Z,21.3
2018-03-22T06:43:52.581Z,21.3
2018-03-22T06:44:42.201Z,21.3
2018-03-22T06:45:32.125Z,21.3
2018-03-22T06:46:22.130Z,21.3
2018-03-22T06:47:12.531Z,21.3
2018-03-22T06:48:02.239Z,21.3
2018-03-22T06:48:52.075Z,21.3
2018-03-22T06:49:42.947Z,21.3
2018-03-22T06:50:32.570Z,21.3
2018-03-22T06:51:22.652Z,21.3
2018-03-22T06:52:13.182Z,21.3
2018-03-22T06:53:03.702Z,21.3
2018-03-22T06:53:52.712Z,21.3
2018-03-22T06:54:42.831Z,21.3
2018-03-22T06:55:32.836Z,21.3
2018-03-22T06:56:22.159Z,21.3
2018-03-22T06:57:12.535Z,21.3
2018-03-22T06:58:03.872Z,21.3
2018-03-22T06:58:53.246Z,21.3
2018-03-22T06:59:43.293Z,21.3
2018-03-22T07:00:34.063Z,21.3
2018-03-22T07:01:23.534Z,21.3
2018-03-22T07:02:13.646Z,21.3
2018-03-22T07:03:04.406Z,21.3
2018-03-22T07:03:54.431Z,21.3
2018-03-22T07:04:44.188Z,21.3
2018-03-22T07:05:33.399Z,21.3
2018-03-22T07:06:23.881Z,21.3
2018-03-22T07:07:12.927Z,21.3
2018-03-22T07:08:04.174Z,21.3
2018-03-22T07:08:53.631Z,21.3
2018-03-22T07:09:44.091Z,21.3
2018-03-22T07:10:33.995Z,21.3
2018-03-22T07:13:04.352Z,21.2
2018-03-22T07:15:33.688Z,21.1
2018-03-22T07:16:24.861Z,21.1
2018-03-22T07:17:15.011Z,21.1
2018-03-22T07:18:04.921Z,21.1
2018-03-22T07:18:54.963Z,21.1
2018-03-22T07:19:45.511Z,21
2018-03-22T07:20:34.484Z,21
2018-03-22T07:21:25.280Z,21
2018-03-22T07:22:15.287Z,21
2018-03-22T07:23:05.190Z,21
2018-03-22T07:23:55.179Z,21
2018-03-22T07:24:45.450Z,21
2018-03-22T07:25:34.130Z,21.1
2018-03-22T07:26:25.200Z,21.1
2018-03-22T07:27:15.490Z,21.1
2018-03-22T07:28:05.157Z,21.1
2018-03-22T07:28:55.423Z,21.1
2018-03-22T07:29:45.683Z,21.1
2018-03-22T07:30:35.607Z,21.1
2018-03-22T07:31:26.447Z,21.1
2018-03-22T07:32:16.304Z,21.1
2018-03-22T07:33:06.004Z,21.1
2018-03-22T07:33:56.684Z,21.1
2018-03-22T07:34:45.813Z,21.1
2018-03-22T07:35:37.312Z,21.1
2018-03-22T07:36:27.057Z,21.1
2018-03-22T07:37:16.846Z,21.1
2018-03-22T07:38:07.337Z,21.1
2018-03-22T07:38:57.276Z,21.1
2018-03-22T07:39:47.046Z,21.1
2018-03-22T07:40:36.351Z,21.1
2018-03-22T07:41:25.693Z,21.1
2018-03-22T07:42:16.458Z,21.1
2018-03-22T07:43:06.323Z,21.1
2018-03-22T07:43:56.398Z,21.1
2018-03-22T07:44:46.740Z,21.1
2018-03-22T07:45:36.700Z,21.1
2018-03-22T07:48:07.074Z,21.1
2018-03-22T07:49:46.959Z,21.1
2018-03-22T07:53:08.287Z,21.1
2018-03-22T07:53:57.749Z,21.1
2018-03-22T07:54:48.153Z,21.1
2018-03-22T07:55:37.432Z,21.1
2018-03-22T07:58:57.984Z,21.1
2018-03-22T07:59:48.484Z,21.1
2018-03-22T08:00:37.945Z,21.1
2018-03-22T08:01:25.635Z,21.1
2018-03-22T08:02:17.050Z,21.1
2018-03-22T08:03:07.507Z,21.1
2018-03-22T08:03:57.862Z,21.1
2018-03-22T08:06:28.132Z,21.1
2018-03-22T08:08:08.149Z,21.1
2018-03-22T08:11:27.776Z,21.1
2018-03-22T08:19:47.836Z,21.2
2018-03-22T08:20:39.509Z,21.2
2018-03-22T08:21:28.828Z,21.2
2018-03-22T08:22:18.710Z,21.2
2018-03-22T08:23:08.690Z,21.2
2018-03-22T08:23:58.708Z,21.2
2018-03-22T08:24:49.069Z,21.3
2018-03-22T08:25:38.303Z,21.3
2018-03-22T08:26:29.853Z,21.3
2018-03-22T08:27:19.356Z,21.3
2018-03-22T08:28:09.695Z,21.3
2018-03-22T08:29:00.058Z,21.3
2018-03-22T08:29:49.756Z,21.3
2018-03-22T08:30:38.494Z,21.3
2018-03-22T08:31:29.163Z,21.3
2018-03-22T08:32:19.695Z,21.3
2018-03-22T08:33:09.777Z,21.3
2018-03-22T08:34:00.066Z,21.3
2018-03-22T08:34:50.865Z,21.3
2018-03-22T08:35:39.760Z,21.3
2018-03-22T08:36:30.726Z,21.3
2018-03-22T08:37:20.333Z,21.3
2018-03-22T08:38:09.797Z,21.3
2018-03-22T08:39:00.137Z,21.4
2018-03-22T08:39:50.206Z,21.3
2018-03-22T08:40:40.437Z,21.4
2018-03-22T08:41:30.605Z,21.3
2018-03-22T08:42:20.904Z,21.4
2018-03-22T08:43:11.984Z,21.4
2018-03-22T08:44:00.577Z,21.4
2018-03-22T08:44:50.482Z,21.4
2018-03-22T08:45:40.417Z,21.4
2018-03-22T08:46:31.762Z,21.4
2018-03-22T08:47:20.616Z,21.4
2018-03-22T08:48:10.984Z,21.4
2018-03-22T08:49:01.136Z,21.4
2018-03-22T08:49:51.392Z,21.4
2018-03-22T08:50:41.781Z,21.4
2018-03-22T08:51:31.925Z,21.4
2018-03-22T08:52:21.307Z,21.4
2018-03-22T08:53:10.547Z,21.4
2018-03-22T08:54:01.919Z,21.4
2018-03-22T08:54:53.299Z,21.4
2018-03-22T08:55:42.304Z,21.4
2018-03-22T08:56:32.579Z,21.4
2018-03-22T08:57:22.197Z,21.4
2018-03-22T08:58:12.009Z,21.4
2018-03-22T08:59:01.771Z,21.4
2018-03-22T08:59:51.369Z,21.4
2018-03-22T09:00:42.060Z,21.4
2018-03-22T09:01:31.421Z,21.4
2018-03-22T09:02:21.984Z,21.4
2018-03-22T09:03:11.744Z,21.4
2018-03-22T09:04:01.861Z,21.4
2018-03-22T09:04:52.951Z,21.4
2018-03-22T09:05:42.270Z,21.4
2018-03-22T09:06:32.821Z,21.4
2018-03-22T09:07:22.016Z,21.4
2018-03-22T09:08:12.456Z,21.4
2018-03-22T09:09:03.228Z,21.4
2018-03-22T09:09:52.921Z,21.4
2018-03-22T09:10:42.971Z,21.4
2018-03-22T09:11:33.200Z,21.4
2018-03-22T09:12:21.292Z,21.5
2018-03-22T09:13:12.680Z,21.4
2018-03-22T09:14:03.334Z,21.4
2018-03-22T09:14:52.410Z,21.4
2018-03-22T09:15:42.937Z,21.4
2018-03-22T09:16:32.437Z,21.4
2018-03-22T09:17:23.260Z,21.5
2018-03-22T09:18:12.932Z,21.5
2018-03-22T09:19:02.910Z,21.5
2018-03-22T09:19:53.371Z,21.5
2018-03-22T09:20:43.194Z,21.5
2018-03-22T09:21:32.930Z,21.5
2018-03-22T09:22:23.167Z,21.5
2018-03-22T09:23:13.411Z,21.5
2018-03-22T09:24:03.641Z,21.5
2018-03-22T09:24:53.335Z,21.5
2018-03-22T09:25:42.977Z,21.5
2018-03-22T09:26:33.354Z,21.5
2018-03-22T09:27:23.710Z,21.5
2018-03-22T09:28:13.877Z,21.5
2018-03-22T09:29:04.592Z,21.6
2018-03-22T09:29:53.383Z,21.6
2018-03-22T09:30:44.812Z,21.5
2018-03-22T09:31:34.299Z,21.5
2018-03-22T09:32:23.822Z,21.5
2018-03-22T09:33:14.432Z,21.5
2018-03-22T09:34:04.499Z,21.5
2018-03-22T09:34:55.425Z,21.5
2018-03-22T09:35:44.245Z,21.5
2018-03-22T09:36:33.625Z,21.6
2018-03-22T09:37:23.698Z,21.6
2018-03-22T09:38:15.507Z,21.6
2018-03-22T09:39:04.885Z,21.6
2018-03-22T09:39:55.042Z,21.6
2018-03-22T09:40:44.009Z,21.5
2018-03-22T09:41:34.770Z,21.6
2018-03-22T09:42:24.214Z,21.6
2018-03-22T09:43:14.089Z,21.6
2018-03-22T09:44:05.071Z,21.6
2018-03-22T09:44:54.706Z,21.6
2018-03-22T09:45:44.577Z,21.6
2018-03-22T09:46:34.010Z,21.6
2018-03-22T09:47:24.757Z,21.6
2018-03-22T09:48:15.242Z,21.6
2018-03-22T09:49:05.841Z,21.6
2018-03-22T09:49:55.850Z,21.6
2018-03-22T09:50:45.497Z,21.6
2018-03-22T09:51:34.638Z,21.6
2018-03-22T09:52:25.491Z,21.6
2018-03-22T09:53:15.772Z,21.6
2018-03-22T09:54:04.845Z,21.6
2018-03-22T09:54:55.201Z,21.6
2018-03-22T09:55:46.064Z,21.6
2018-03-22T09:56:35.518Z,21.6
2018-03-22T09:57:26.830Z,21.6
2018-03-22T09:58:16.014Z,21.6
2018-03-22T09:59:07.254Z,21.6
2018-03-22T09:59:56.697Z,21.6
2018-03-22T10:00:47.036Z,21.6
2018-03-22T10:01:37.390Z,21.6
2018-03-22T10:02:27.413Z,21.6
2018-03-22T10:03:17.193Z,21.6
2018-03-22T10:04:06.707Z,21.6
2018-03-22T10:04:56.817Z,21.6
2018-03-22T10:05:46.361Z,21.6
2018-03-22T10:06:37.698Z,21.6
2018-03-22T10:07:27.810Z,21.6
2018-03-22T10:08:17.520Z,21.6
2018-03-22T10:09:07.130Z,21.6
2018-03-22T10:09:56.860Z,21.6
2018-03-22T10:10:46.932Z,21.6
2018-03-22T10:11:37.505Z,21.6
2018-03-22T10:12:28.127Z,21.6
2018-03-22T10:13:17.398Z,21.6
2018-03-22T10:14:07.140Z,21.6
2018-03-22T10:14:56.974Z,21.6
2018-03-22T10:15:47.582Z,21.6
2018-03-22T10:16:37.887Z,21.6
2018-03-22T10:17:27.305Z,21.6
2018-03-22T10:18:18.278Z,21.6
2018-03-22T10:19:08.078Z,21.6
2018-03-22T10:19:57.835Z,21.6
2018-03-22T10:20:48.387Z,21.6
2018-03-22T10:21:37.963Z,21.6
2018-03-22T10:22:28.295Z,21.6
2018-03-22T10:23:18.063Z,21.6
2018-03-22T10:24:07.548Z,21.6
2018-03-22T10:24:58.429Z,21.6
2018-03-22T10:25:47.728Z,21.6
2018-03-22T10:26:38.500Z,21.6
2018-03-22T10:27:28.633Z,21.6
2018-03-22T10:28:18.367Z,21.6
2018-03-22T10:29:08.419Z,21.6
2018-03-22T10:29:59.338Z,21.6
2018-03-22T10:30:48.617Z,21.6
2018-03-22T10:31:38.929Z,21.6
2018-03-22T10:32:29.168Z,21.6
2018-03-22T10:33:19.588Z,21.6
2018-03-22T10:34:08.502Z,21.6
2018-03-22T10:34:58.586Z,21.6
2018-03-22T10:35:48.386Z,21.6
2018-03-22T10:36:37.246Z,21.6
2018-03-22T10:37:28.264Z,21.6
2018-03-22T10:38:19.804Z,21.6
2018-03-22T10:39:08.239Z,21.6
2018-03-22T10:39:58.177Z,21.6
2018-03-22T10:40:48.769Z,21.6
2018-03-22T10:41:39.448Z,21.6
2018-03-22T10:42:28.996Z,21.6
2018-03-22T10:43:19.623Z,21.6
2018-03-22T10:44:08.400Z,21.7
2018-03-22T10:44:59.876Z,21.7
2018-03-22T10:45:48.558Z,21.7
2018-03-22T10:46:38.828Z,21.6
2018-03-22T10:47:28.953Z,21.7
2018-03-22T10:48:19.741Z,21.7
2018-03-22T10:49:09.428Z,21.7
2018-03-22T10:49:58.837Z,21.7
2018-03-22T10:50:49.346Z,21.7
2018-03-22T10:51:39.267Z,21.7
2018-03-22T10:52:30.490Z,21.7
2018-03-22T10:53:19.865Z,21.7
2018-03-22T10:54:09.730Z,21.7
2018-03-22T10:54:59.378Z,21.7
2018-03-22T10:55:50.142Z,21.7
2018-03-22T10:56:39.610Z,21.7
2018-03-22T10:57:29.375Z,21.7
2018-03-22T10:58:19.353Z,21.7
2018-03-22T10:59:10.450Z,21.7
2018-03-22T10:59:59.248Z,21.7
2018-03-22T11:00:50.067Z,21.7
2018-03-22T11:01:39.372Z,21.7
2018-03-22T11:02:29.583Z,21.7
2018-03-22T11:03:20.610Z,21.7
2018-03-22T11:04:10.847Z,21.7
2018-03-22T11:04:59.680Z,21.7
2018-03-22T11:05:50.658Z,21.6
2018-03-22T11:06:41.004Z,21.7
2018-03-22T11:07:30.279Z,21.6
2018-03-22T11:08:21.071Z,21.6
2018-03-22T11:09:10.369Z,21.6
2018-03-22T11:10:00.705Z,21.6
2018-03-22T11:10:51.584Z,21.6
2018-03-22T11:11:40.542Z,21.6
2018-03-22T11:12:31.428Z,21.6
2018-03-22T11:13:20.839Z,21.6
2018-03-22T11:14:10.941Z,21.6
2018-03-22T11:15:01.206Z,21.6
2018-03-22T11:15:51.842Z,21.6
2018-03-22T11:16:41.218Z,21.6
2018-03-22T11:17:31.032Z,21.6
2018-03-22T11:18:21.511Z,21.6
2018-03-22T11:19:11.322Z,21.6
2018-03-22T11:20:01.634Z,21.6
2018-03-22T11:20:52.059Z,21.6
2018-03-22T11:21:41.526Z,21.6
2018-03-22T11:22:31.669Z,21.6
2018-03-22T11:23:21.932Z,21.6
2018-03-22T11:24:11.487Z,21.6
2018-03-22T11:25:01.261Z,21.6
2018-03-22T11:25:51.421Z,21.6
2018-03-22T11:26:40.971Z,21.6
2018-03-22T11:27:31.451Z,21.6
2018-03-22T11:28:20.993Z,21.6
2018-03-22T11:29:12.624Z,21.6